createdAt,value
2019-02-21T00:02:22.717Z,4.13
2019-02-21T00:07:22.333Z,4.90
2019-02-21T00:12:21.930Z,5.50
2019-02-21T00:17:21.479Z,4.50
2019-02-21T00:22:22.024Z,4.67
2019-02-21T00:27:21.611Z,5.87
2019-02-21T00:32:21.150Z,4.50
2019-02-21T00:37:20.687Z,5.20
2019-02-21T00:42:20.230Z,4.90
2019-02-21T00:47:19.765Z,5.20
2019-02-21T00:52:19.311Z,6.17
2019-02-21T00:57:18.889Z,5.83
2019-02-21T01:02:18.442Z,5.73
2019-02-21T01:07:17.970Z,5.70
2019-02-21T01:12:17.682Z,5.23
2019-02-21T01:17:17.234Z,6.53
2019-02-21T01:22:16.785Z,6.07
2019-02-21T01:27:16.317Z,7.00
2019-02-21T01:32:15.935Z,5.37
2019-02-21T01:37:15.489Z,6.30
2019-02-21T01:42:15.165Z,6.30
2019-02-21T01:47:14.729Z,6.87
2019-02-21T01:52:14.278Z,6.30
2019-02-21T01:57:13.891Z,5.80
2019-02-21T02:02:13.419Z,7.33
2019-02-21T02:07:13.026Z,7.53
2019-02-21T02:12:13.549Z,7.07
2019-02-21T02:17:13.081Z,6.90
2019-02-21T02:22:12.616Z,6.67
2019-02-21T02:27:12.149Z,7.67
2019-02-21T02:32:11.693Z,7.00
2019-02-21T02:37:11.231Z,7.20
2019-02-21T02:42:10.788Z,7.13
2019-02-21T02:47:10.322Z,6.90
2019-02-21T02:52:10.075Z,8.57
2019-02-21T02:57:09.646Z,7.30
2019-02-21T03:02:09.272Z,9.10
2019-02-21T03:07:08.815Z,8.77
2019-02-21T03:12:08.339Z,7.50
2019-02-21T03:17:07.887Z,10.27
2019-02-21T03:22:07.423Z,9.70
2019-02-21T03:27:06.966Z,9.50
2019-02-21T03:32:06.591Z,10.60
2019-02-21T03:37:06.302Z,8.47
2019-02-21T03:42:06.003Z,9.60
2019-02-21T03:47:05.937Z,8.93
2019-02-21T03:52:05.478Z,10.87
2019-02-21T03:57:06.029Z,9.20
2019-02-21T04:02:05.907Z,10.83
2019-02-21T04:07:06.701Z,10.87
2019-02-21T04:12:06.248Z,11.53
2019-02-21T04:17:05.791Z,12.53
2019-02-21T04:22:05.324Z,11.47
2019-02-21T04:27:04.943Z,13.63
2019-02-21T04:32:16.156Z,13.60
2019-02-21T04:37:05.734Z,12.40
2019-02-21T04:42:05.291Z,14.50
2019-02-21T04:47:04.869Z,12.73
2019-02-21T04:52:04.484Z,13.87
2019-02-21T04:57:04.097Z,12.50
2019-02-21T05:02:03.665Z,13.50
2019-02-21T05:07:03.210Z,13.10
2019-02-21T05:12:02.819Z,14.70
2019-02-21T05:17:02.380Z,15.10
2019-02-21T05:22:01.950Z,15.77
2019-02-21T05:27:20.875Z,15.50
2019-02-21T05:32:43.925Z,16.17
2019-02-21T05:37:50.021Z,17.30
2019-02-21T05:43:08.693Z,18.10
2019-02-21T05:48:17.370Z,15.53
2019-02-21T05:53:36.025Z,17.13
2019-02-21T05:58:51.317Z,16.93
2019-02-21T06:03:59.545Z,16.90
2019-02-21T06:09:08.694Z,17.70
2019-02-21T06:14:30.737Z,17.07
2019-02-21T06:19:42.962Z,17.57
2019-02-21T06:24:48.702Z,17.37
2019-02-21T06:29:53.578Z,18.40
2019-02-21T06:34:53.173Z,17.57
2019-02-21T06:39:52.723Z,19.20
2019-02-21T06:44:52.263Z,18.80
2019-02-21T06:49:51.817Z,16.80
2019-02-21T06:54:51.374Z,17.93
2019-02-21T06:59:50.924Z,17.43
2019-02-21T07:04:50.461Z,18.07
2019-02-21T07:09:50.001Z,16.63
2019-02-21T07:14:49.542Z,18.33
2019-02-21T07:19:49.096Z,17.83
2019-02-21T07:24:53.895Z,18.93
2019-02-21T07:29:52.754Z,18.60
2019-02-21T07:34:52.423Z,18.47
2019-02-21T07:39:53.100Z,20.70
2019-02-21T07:44:53.943Z,17.17
2019-02-21T07:49:54.383Z,16.53
2019-02-21T07:55:01.251Z,17.30
2019-02-21T07:59:55.543Z,18.50
2019-02-21T08:04:55.083Z,18.00
2019-02-21T08:09:54.624Z,17.40
2019-02-21T08:14:56.238Z,17.40
2019-02-21T08:19:55.424Z,18.40
2019-02-21T08:24:56.653Z,18.83
2019-02-21T08:29:56.368Z,17.77
2019-02-21T08:34:56.004Z,16.57
2019-02-21T08:39:55.557Z,19.30
2019-02-21T08:44:55.120Z,17.43
2019-02-21T08:49:54.786Z,18.80
2019-02-21T08:55:00.119Z,18.17
2019-02-21T08:59:55.571Z,17.17
2019-02-21T09:04:55.101Z,17.47
2019-02-21T09:09:54.767Z,16.67
2019-02-21T09:14:54.335Z,17.20
2019-02-21T09:19:53.888Z,17.23
2019-02-21T09:24:53.442Z,19.87
2019-02-21T09:30:13.949Z,18.20
2019-02-21T09:35:14.727Z,16.60
2019-02-21T09:40:14.476Z,17.47
2019-02-21T09:45:16.257Z,19.30
2019-02-21T09:50:15.801Z,16.07
2019-02-21T09:55:16.273Z,18.30
2019-02-21T10:00:17.670Z,17.37
2019-02-21T10:05:17.384Z,19.20
2019-02-21T10:10:17.532Z,18.77
2019-02-21T10:15:17.217Z,19.17
2019-02-21T10:20:18.289Z,18.20
2019-02-21T10:25:22.949Z,16.87
2019-02-21T10:30:25.335Z,16.83
2019-02-21T10:35:25.073Z,16.17
2019-02-21T10:40:24.701Z,15.60
2019-02-21T10:45:24.249Z,15.30
2019-02-21T10:50:23.826Z,14.50
2019-02-21T10:55:23.377Z,14.10
2019-02-21T11:00:26.388Z,15.30
2019-02-21T11:05:26.037Z,13.50
2019-02-21T11:10:26.752Z,13.10
2019-02-21T11:15:26.497Z,12.83
2019-02-21T11:20:26.037Z,13.00
2019-02-21T11:25:25.602Z,12.90
2019-02-21T11:30:25.270Z,10.97
2019-02-21T11:35:24.839Z,11.60
2019-02-21T11:40:24.690Z,11.60
2019-02-21T11:45:24.251Z,10.30
2019-02-21T11:50:23.829Z,12.50
2019-02-21T11:55:23.466Z,11.30
2019-02-21T12:00:24.751Z,11.07
2019-02-21T12:05:31.527Z,9.93
2019-02-21T12:10:26.535Z,9.00
2019-02-21T12:15:26.073Z,11.33
2019-02-21T12:20:25.617Z,10.70
2019-02-21T12:25:25.157Z,9.50
2019-02-21T12:30:25.682Z,9.93
2019-02-21T12:35:29.724Z,9.80
2019-02-21T12:40:26.482Z,10.53
2019-02-21T12:45:26.407Z,10.60
2019-02-21T12:50:25.977Z,10.33
2019-02-21T12:55:29.387Z,9.17
2019-02-21T13:00:26.771Z,10.60
2019-02-21T13:05:26.326Z,10.00
2019-02-21T13:10:25.874Z,9.67
2019-02-21T13:15:25.418Z,9.73
2019-02-21T13:20:25.031Z,9.60
2019-02-21T13:25:24.577Z,8.33
2019-02-21T13:30:24.117Z,7.93
2019-02-21T13:35:23.680Z,7.03
2019-02-21T13:40:23.330Z,7.20
2019-02-21T13:45:22.872Z,6.80
2019-02-21T13:50:23.817Z,6.63
2019-02-21T13:55:24.621Z,6.17
2019-02-21T14:00:24.261Z,6.47
2019-02-21T14:05:23.843Z,5.53
2019-02-21T14:10:23.414Z,6.43
2019-02-21T14:15:24.275Z,5.67
2019-02-21T14:20:23.967Z,5.10
2019-02-21T14:25:23.591Z,7.47
2019-02-21T14:30:23.133Z,6.50
2019-02-21T14:35:22.708Z,7.60
2019-02-21T14:40:23.821Z,7.43
2019-02-21T14:45:24.406Z,8.23
2019-02-21T14:50:23.993Z,8.00
2019-02-21T14:55:23.644Z,9.07
2019-02-21T15:00:23.249Z,8.63
2019-02-21T15:05:22.949Z,8.27
2019-02-21T15:10:22.692Z,8.00
2019-02-21T15:15:22.489Z,8.20
2019-02-21T15:20:22.109Z,9.50
2019-02-21T15:25:21.661Z,8.90
2019-02-21T15:30:21.233Z,9.87
2019-02-21T15:35:20.857Z,10.10
2019-02-21T15:40:20.410Z,8.60
2019-02-21T15:45:23.354Z,8.60
2019-02-21T15:50:21.716Z,9.37
2019-02-21T15:55:22.519Z,9.57
2019-02-21T16:00:22.266Z,9.10
2019-02-21T16:05:21.814Z,9.77
2019-02-21T16:10:22.049Z,9.90
2019-02-21T16:15:21.670Z,8.47
2019-02-21T16:20:21.613Z,9.43
2019-02-21T16:25:21.407Z,8.73
2019-02-21T16:30:21.990Z,9.13
2019-02-21T16:35:21.865Z,10.00
2019-02-21T16:40:21.579Z,10.50
2019-02-21T16:45:21.159Z,9.47
2019-02-21T16:50:29.319Z,10.17
2019-02-21T16:55:22.000Z,9.10
2019-02-21T17:00:21.699Z,9.50
2019-02-21T17:05:21.298Z,9.83
2019-02-21T17:10:20.932Z,10.23
2019-02-21T17:15:20.481Z,9.20
2019-02-21T17:20:20.161Z,10.10
2019-02-21T17:25:19.880Z,9.60
2019-02-21T17:30:19.679Z,9.10
2019-02-21T17:35:19.485Z,8.73
2019-02-21T17:40:19.949Z,9.23
2019-02-21T17:45:19.570Z,8.30
2019-02-21T17:50:19.142Z,9.60
2019-02-21T17:55:18.792Z,10.80
2019-02-21T18:00:23.932Z,9.17
2019-02-21T18:05:23.514Z,9.53
2019-02-21T18:10:23.148Z,10.40
2019-02-21T18:15:22.688Z,10.03
2019-02-21T18:20:22.261Z,10.50
2019-02-21T18:25:25.784Z,13.97
2019-02-21T18:30:25.597Z,13.10
2019-02-21T18:35:26.747Z,13.97
2019-02-21T18:40:27.082Z,13.20
2019-02-21T18:45:26.613Z,14.00
2019-02-21T18:50:37.639Z,13.73
2019-02-21T18:55:29.432Z,17.60
2019-02-21T19:00:29.001Z,19.07
2019-02-21T19:05:35.938Z,16.17
2019-02-21T19:10:32.923Z,16.63
2019-02-21T19:15:32.739Z,19.00
2019-02-21T19:20:32.823Z,16.47
2019-02-21T19:25:32.513Z,19.80
2019-02-21T19:30:38.419Z,18.20
2019-02-21T19:35:38.057Z,18.93
2019-02-21T19:40:37.684Z,18.67
2019-02-21T19:45:37.383Z,21.40
2019-02-21T19:50:37.079Z,22.50
2019-02-21T19:55:36.716Z,21.70
2019-02-21T20:00:37.341Z,21.87
2019-02-21T20:05:37.137Z,22.23
2019-02-21T20:10:36.787Z,22.67
2019-02-21T20:15:36.407Z,23.27
2019-02-21T20:20:36.481Z,22.60
2019-02-21T20:25:36.027Z,24.60
2019-02-21T20:30:35.797Z,23.70
2019-02-21T20:35:35.325Z,24.10
2019-02-21T20:40:34.877Z,24.20
2019-02-21T20:45:34.605Z,25.93
2019-02-21T20:50:34.184Z,25.60
2019-02-21T20:55:43.023Z,26.50
2019-02-21T21:00:35.143Z,27.10
2019-02-21T21:05:35.006Z,25.30
2019-02-21T21:10:34.718Z,24.17
2019-02-21T21:15:34.403Z,24.30
2019-02-21T21:20:34.568Z,25.27
2019-02-21T21:25:35.131Z,25.07
2019-02-21T21:30:34.738Z,25.80
2019-02-21T21:35:34.981Z,26.57
2019-02-21T21:40:34.649Z,25.60
2019-02-21T21:45:34.343Z,24.67
2019-02-21T21:50:34.069Z,24.77
2019-02-21T21:55:33.777Z,26.50
2019-02-21T22:00:33.634Z,26.43
2019-02-21T22:05:33.256Z,27.20
2019-02-21T22:10:32.855Z,26.30
2019-02-21T22:15:32.397Z,25.70
2019-02-21T22:20:31.967Z,22.93
2019-02-21T22:25:31.498Z,24.17
2019-02-21T22:30:31.049Z,24.13
2019-02-21T22:35:30.615Z,24.43
2019-02-21T22:40:30.169Z,23.30
2019-02-21T22:45:29.706Z,20.80
2019-02-21T22:50:48.513Z,22.97
2019-02-21T22:55:48.052Z,21.37
2019-02-21T23:00:59.632Z,19.53
2019-02-21T23:06:15.997Z,19.93
2019-02-21T23:11:15.532Z,18.33
2019-02-21T23:16:15.157Z,16.83
2019-02-21T23:21:14.771Z,16.60
2019-02-21T23:26:14.307Z,16.17
2019-02-21T23:31:13.863Z,15.97
2019-02-21T23:36:13.405Z,14.70
2019-02-21T23:41:12.945Z,14.57
2019-02-21T23:46:12.503Z,17.13
2019-02-21T23:51:12.030Z,14.63
2019-02-21T23:56:11.590Z,14.93
